메인 페이지
METAR-TAF:

METAR-TAF

공항 :

시러큐스, 뉴욕, 미국

위도: 43-06-33N, 경도: 076-06-12W, 고도: 128m

현재 날씨관측

예보는 53분 전, 22:54시(UTC)에 발표되었습니다.
북북동8kt
온도 8°C
습도 76%
기압 1014 hPa
시정: 16.1km
고도 4700ft 상공 흐림

METAR: KSYR 312254Z 02008KT 10SM OVC047 08/04 A2995 RMK AO2 SLP140 T00830039

시각: 19:47 (23:47 UTC)

예보

예보는 14분 전, 23:33시(UTC)에 발표되었습니다.
예보 대상 시간: 01일 00시부터 01일 24시까지 (UTC)
북동5kt
시정: 10km
고도 3500ft 상공 구름 많음
일시적
01일 01시부터 01일 04시까지 (UTC)
약한소나기
01일 1500시부터 (UTC)
북서9kt
시정: 10km
고도 7000ft 상공 구름 보통

TAF: KSYR 312333Z 0100/0124 04005KT P6SM BKN035 TEMPO 0101/0104 -SHRA FM011500 32009KT P6SM SCT070

4,000개 이상의 공항 관측 자료 및 예보 (METAR 및 TAF 보고).

지도상에서 검색 가능한 기상관측소가 노란 점과 빨간 점으로 표시되어 있습니다.

기상관측소 명을 보려면 표시 위로 마우스를 이동하세요.

날씨 관측과 예보를 보려면 클릭하세요.

지도 변경 : 확대하려면 엑스 표시가 있는 녹색 버튼, 축소하려면 빼기 표시가 있는 녹색 버튼, 다음 페이지의 지도를 보려면 녹색 화살표를 클릭하세요.


METAR-TAF: